Weather at Sacramento International Airport

Public forecast

Using degrees Fahrenheit for public forecast. Weather courtesy of forecast.io.

Current aviation weather report (METAR) for Sacramento International Airport

Retrieved 2021/01/20 20:53 UTC (23 minutes ago):

KSMF 202053Z 32005KT 10SM FEW250 17/M04 A3010 RMK AO2 SLP190 T01671044 58021

Aviation forecast (TAF) for Sacramento International Airport

Retrieved 2021/01/20 18:39 UTC (3 hours ago):

TAF KSMF 201737Z 2018/2118 VRB04KT P6SM SKC